sensor_id;sensor_type;location;lat;lon;timestamp;P1;durP1;ratioP1;P2;durP2;ratioP2
13220;SDS011;6675;48.128;11.478;2024-03-25T00:00:51;2.70;;;0.95;;
13220;SDS011;6675;48.128;11.478;2024-03-25T00:03:17;1.20;;;0.60;;
13220;SDS011;6675;48.128;11.478;2024-03-25T00:05:42;3.22;;;0.90;;
13220;SDS011;6675;48.128;11.478;2024-03-25T00:08:08;3.35;;;0.77;;
13220;SDS011;6675;48.128;11.478;2024-03-25T00:10:33;3.28;;;1.55;;
13220;SDS011;6675;48.128;11.478;2024-03-25T00:12:59;3.65;;;1.00;;
13220;SDS011;6675;48.128;11.478;2024-03-25T00:15:25;4.55;;;0.90;;
13220;SDS011;6675;48.128;11.478;2024-03-25T00:17:51;3.28;;;1.23;;
13220;SDS011;6675;48.128;11.478;2024-03-25T00:20:16;2.38;;;0.90;;
13220;SDS011;6675;48.128;11.478;2024-03-25T00:22:43;3.25;;;1.00;;
13220;SDS011;6675;48.128;11.478;2024-03-25T00:25:08;2.30;;;0.90;;
13220;SDS011;6675;48.128;11.478;2024-03-25T00:27:34;4.03;;;1.20;;
13220;SDS011;6675;48.128;11.478;2024-03-25T00:30:00;1.85;;;0.75;;
13220;SDS011;6675;48.128;11.478;2024-03-25T00:32:25;2.95;;;0.98;;
13220;SDS011;6675;48.128;11.478;2024-03-25T00:34:51;3.05;;;1.00;;
13220;SDS011;6675;48.128;11.478;2024-03-25T00:37:16;2.85;;;0.90;;
13220;SDS011;6675;48.128;11.478;2024-03-25T00:39:42;2.65;;;1.02;;
13220;SDS011;6675;48.128;11.478;2024-03-25T00:42:08;3.80;;;1.20;;
13220;SDS011;6675;48.128;11.478;2024-03-25T00:44:33;3.17;;;1.05;;
13220;SDS011;6675;48.128;11.478;2024-03-25T00:46:59;3.10;;;1.23;;
13220;SDS011;6675;48.128;11.478;2024-03-25T00:49:24;2.92;;;1.17;;
13220;SDS011;6675;48.128;11.478;2024-03-25T00:51:50;2.05;;;0.95;;
13220;SDS011;6675;48.128;11.478;2024-03-25T00:54:16;2.10;;;1.10;;
13220;SDS011;6675;48.128;11.478;2024-03-25T00:56:41;2.33;;;1.20;;
13220;SDS011;6675;48.128;11.478;2024-03-25T00:59:07;2.58;;;1.00;;
13220;SDS011;6675;48.128;11.478;2024-03-25T01:01:32;4.10;;;1.27;;
13220;SDS011;6675;48.128;11.478;2024-03-25T01:04:00;3.50;;;1.20;;
13220;SDS011;6675;48.128;11.478;2024-03-25T01:06:26;2.15;;;0.85;;
13220;SDS011;6675;48.128;11.478;2024-03-25T01:08:52;1.85;;;0.80;;
13220;SDS011;6675;48.128;11.478;2024-03-25T01:11:17;2.22;;;1.00;;
13220;SDS011;6675;48.128;11.478;2024-03-25T01:13:43;2.22;;;1.00;;
13220;SDS011;6675;48.128;11.478;2024-03-25T01:16:09;2.97;;;1.08;;
13220;SDS011;6675;48.128;11.478;2024-03-25T01:18:34;2.10;;;0.90;;
13220;SDS011;6675;48.128;11.478;2024-03-25T01:21:00;2.58;;;0.77;;
13220;SDS011;6675;48.128;11.478;2024-03-25T01:23:26;4.57;;;1.20;;
13220;SDS011;6675;48.128;11.478;2024-03-25T01:25:51;2.97;;;1.10;;
13220;SDS011;6675;48.128;11.478;2024-03-25T01:28:17;2.13;;;0.80;;
13220;SDS011;6675;48.128;11.478;2024-03-25T01:30:43;2.55;;;1.25;;
13220;SDS011;6675;48.128;11.478;2024-03-25T01:33:09;2.42;;;0.90;;
13220;SDS011;6675;48.128;11.478;2024-03-25T01:35:34;2.35;;;1.08;;
13220;SDS011;6675;48.128;11.478;2024-03-25T01:38:00;2.10;;;1.00;;
13220;SDS011;6675;48.128;11.478;2024-03-25T01:40:26;2.70;;;1.13;;
13220;SDS011;6675;48.128;11.478;2024-03-25T01:42:58;2.63;;;1.00;;
13220;SDS011;6675;48.128;11.478;2024-03-25T01:45:25;3.97;;;1.50;;
13220;SDS011;6675;48.128;11.478;2024-03-25T01:47:52;3.03;;;1.05;;
13220;SDS011;6675;48.128;11.478;2024-03-25T01:50:19;4.65;;;1.27;;
13220;SDS011;6675;48.128;11.478;2024-03-25T01:52:45;2.88;;;1.00;;
13220;SDS011;6675;48.128;11.478;2024-03-25T01:55:12;2.58;;;1.30;;
13220;SDS011;6675;48.128;11.478;2024-03-25T01:57:43;1.70;;;0.77;;
13220;SDS011;6675;48.128;11.478;2024-03-25T02:00:10;2.67;;;0.98;;
13220;SDS011;6675;48.128;11.478;2024-03-25T02:02:36;2.30;;;1.20;;
13220;SDS011;6675;48.128;11.478;2024-03-25T02:07:32;2.30;;;0.98;;
13220;SDS011;6675;48.128;11.478;2024-03-25T02:10:02;2.30;;;1.00;;
13220;SDS011;6675;48.128;11.478;2024-03-25T02:12:29;2.72;;;1.10;;
13220;SDS011;6675;48.128;11.478;2024-03-25T02:14:56;1.88;;;1.00;;
13220;SDS011;6675;48.128;11.478;2024-03-25T02:17:23;3.10;;;1.35;;
13220;SDS011;6675;48.128;11.478;2024-03-25T02:19:49;2.75;;;1.10;;
13220;SDS011;6675;48.128;11.478;2024-03-25T02:22:15;2.70;;;0.80;;
13220;SDS011;6675;48.128;11.478;2024-03-25T02:24:41;2.35;;;1.10;;
13220;SDS011;6675;48.128;11.478;2024-03-25T02:27:07;2.40;;;1.10;;
13220;SDS011;6675;48.128;11.478;2024-03-25T02:29:36;4.53;;;1.50;;
13220;SDS011;6675;48.128;11.478;2024-03-25T02:32:01;3.15;;;1.35;;
13220;SDS011;6675;48.128;11.478;2024-03-25T02:34:27;3.45;;;1.33;;
13220;SDS011;6675;48.128;11.478;2024-03-25T02:36:54;2.33;;;1.13;;
13220;SDS011;6675;48.128;11.478;2024-03-25T02:39:19;2.90;;;1.13;;
13220;SDS011;6675;48.128;11.478;2024-03-25T02:41:45;2.30;;;1.10;;
13220;SDS011;6675;48.128;11.478;2024-03-25T02:44:11;3.50;;;1.13;;
13220;SDS011;6675;48.128;11.478;2024-03-25T02:46:39;1.98;;;0.93;;
13220;SDS011;6675;48.128;11.478;2024-03-25T02:49:06;3.40;;;1.20;;
13220;SDS011;6675;48.128;11.478;2024-03-25T02:51:31;2.25;;;1.00;;
13220;SDS011;6675;48.128;11.478;2024-03-25T02:53:57;2.70;;;1.20;;
13220;SDS011;6675;48.128;11.478;2024-03-25T02:56:22;3.08;;;1.33;;
13220;SDS011;6675;48.128;11.478;2024-03-25T02:58:48;2.85;;;1.42;;
13220;SDS011;6675;48.128;11.478;2024-03-25T03:01:15;2.47;;;1.27;;
13220;SDS011;6675;48.128;11.478;2024-03-25T03:03:41;3.22;;;1.20;;
13220;SDS011;6675;48.128;11.478;2024-03-25T03:06:07;2.63;;;1.00;;
13220;SDS011;6675;48.128;11.478;2024-03-25T03:08:32;3.50;;;1.50;;
13220;SDS011;6675;48.128;11.478;2024-03-25T03:10:58;3.55;;;1.30;;
13220;SDS011;6675;48.128;11.478;2024-03-25T03:13:23;3.58;;;1.35;;
13220;SDS011;6675;48.128;11.478;2024-03-25T03:15:49;3.35;;;1.10;;
13220;SDS011;6675;48.128;11.478;2024-03-25T03:18:14;3.47;;;1.13;;
13220;SDS011;6675;48.128;11.478;2024-03-25T03:20:40;2.72;;;1.50;;
13220;SDS011;6675;48.128;11.478;2024-03-25T03:23:05;4.07;;;1.33;;
13220;SDS011;6675;48.128;11.478;2024-03-25T03:25:31;4.95;;;1.40;;
13220;SDS011;6675;48.128;11.478;2024-03-25T03:27:56;3.25;;;1.15;;
13220;SDS011;6675;48.128;11.478;2024-03-25T03:30:22;3.42;;;1.38;;
13220;SDS011;6675;48.128;11.478;2024-03-25T03:32:47;2.50;;;1.13;;
13220;SDS011;6675;48.128;11.478;2024-03-25T03:35:13;2.40;;;1.20;;
13220;SDS011;6675;48.128;11.478;2024-03-25T03:37:38;4.80;;;1.45;;
13220;SDS011;6675;48.128;11.478;2024-03-25T03:40:04;5.40;;;1.58;;
13220;SDS011;6675;48.128;11.478;2024-03-25T03:42:33;3.05;;;1.63;;
13220;SDS011;6675;48.128;11.478;2024-03-25T03:44:58;2.10;;;1.10;;
13220;SDS011;6675;48.128;11.478;2024-03-25T03:47:24;4.95;;;1.42;;
13220;SDS011;6675;48.128;11.478;2024-03-25T03:49:50;3.45;;;1.48;;
13220;SDS011;6675;48.128;11.478;2024-03-25T03:52:15;2.83;;;1.55;;
13220;SDS011;6675;48.128;11.478;2024-03-25T03:54:41;3.60;;;1.23;;
13220;SDS011;6675;48.128;11.478;2024-03-25T03:57:06;3.83;;;1.30;;
13220;SDS011;6675;48.128;11.478;2024-03-25T03:59:32;3.88;;;1.58;;
13220;SDS011;6675;48.128;11.478;2024-03-25T04:01:57;2.80;;;1.40;;
13220;SDS011;6675;48.128;11.478;2024-03-25T04:04:23;3.67;;;1.50;;
13220;SDS011;6675;48.128;11.478;2024-03-25T04:06:48;4.15;;;1.60;;
13220;SDS011;6675;48.128;11.478;2024-03-25T04:09:14;3.15;;;1.50;;
13220;SDS011;6675;48.128;11.478;2024-03-25T04:11:39;3.63;;;1.60;;
13220;SDS011;6675;48.128;11.478;2024-03-25T04:14:05;3.80;;;1.58;;
13220;SDS011;6675;48.128;11.478;2024-03-25T04:16:30;5.60;;;1.90;;
13220;SDS011;6675;48.128;11.478;2024-03-25T04:18:56;3.63;;;1.52;;
13220;SDS011;6675;48.128;11.478;2024-03-25T04:21:22;4.65;;;1.63;;
13220;SDS011;6675;48.128;11.478;2024-03-25T04:23:48;3.25;;;1.70;;
13220;SDS011;6675;48.128;11.478;2024-03-25T04:26:14;2.55;;;1.23;;
13220;SDS011;6675;48.128;11.478;2024-03-25T04:28:40;3.03;;;1.48;;
13220;SDS011;6675;48.128;11.478;2024-03-25T04:31:07;3.58;;;1.60;;
13220;SDS011;6675;48.128;11.478;2024-03-25T04:33:33;4.82;;;1.58;;
13220;SDS011;6675;48.128;11.478;2024-03-25T04:35:59;4.75;;;1.38;;
13220;SDS011;6675;48.128;11.478;2024-03-25T04:38:25;3.75;;;1.58;;
13220;SDS011;6675;48.128;11.478;2024-03-25T04:40:51;3.53;;;1.85;;
13220;SDS011;6675;48.128;11.478;2024-03-25T04:43:16;3.47;;;1.80;;
13220;SDS011;6675;48.128;11.478;2024-03-25T04:45:42;3.38;;;1.60;;
13220;SDS011;6675;48.128;11.478;2024-03-25T04:48:07;4.43;;;1.55;;
13220;SDS011;6675;48.128;11.478;2024-03-25T04:50:33;4.97;;;1.80;;
13220;SDS011;6675;48.128;11.478;2024-03-25T04:52:59;4.90;;;1.85;;
13220;SDS011;6675;48.128;11.478;2024-03-25T04:55:24;4.30;;;1.83;;
13220;SDS011;6675;48.128;11.478;2024-03-25T04:57:50;4.13;;;1.98;;
13220;SDS011;6675;48.128;11.478;2024-03-25T05:00:16;4.80;;;1.85;;
13220;SDS011;6675;48.128;11.478;2024-03-25T05:02:42;3.67;;;1.60;;
13220;SDS011;6675;48.128;11.478;2024-03-25T05:05:08;4.07;;;2.20;;
13220;SDS011;6675;48.128;11.478;2024-03-25T05:07:34;3.55;;;1.75;;
13220;SDS011;6675;48.128;11.478;2024-03-25T05:10:00;3.90;;;2.13;;
13220;SDS011;6675;48.128;11.478;2024-03-25T05:12:26;4.82;;;2.13;;
13220;SDS011;6675;48.128;11.478;2024-03-25T05:14:55;4.47;;;2.30;;
13220;SDS011;6675;48.128;11.478;2024-03-25T05:17:21;3.92;;;2.10;;
13220;SDS011;6675;48.128;11.478;2024-03-25T05:19:46;7.47;;;1.98;;
13220;SDS011;6675;48.128;11.478;2024-03-25T05:22:12;3.88;;;1.67;;
13220;SDS011;6675;48.128;11.478;2024-03-25T05:24:38;4.78;;;1.75;;
13220;SDS011;6675;48.128;11.478;2024-03-25T05:27:03;3.00;;;1.55;;
13220;SDS011;6675;48.128;11.478;2024-03-25T05:29:29;3.22;;;1.75;;
13220;SDS011;6675;48.128;11.478;2024-03-25T05:31:56;2.80;;;1.50;;
13220;SDS011;6675;48.128;11.478;2024-03-25T05:34:23;3.67;;;1.50;;
13220;SDS011;6675;48.128;11.478;2024-03-25T05:36:49;3.10;;;1.42;;
13220;SDS011;6675;48.128;11.478;2024-03-25T05:39:14;3.97;;;1.67;;
13220;SDS011;6675;48.128;11.478;2024-03-25T05:41:40;3.92;;;1.67;;
13220;SDS011;6675;48.128;11.478;2024-03-25T05:44:05;3.28;;;1.75;;
13220;SDS011;6675;48.128;11.478;2024-03-25T05:46:31;4.32;;;1.52;;
13220;SDS011;6675;48.128;11.478;2024-03-25T05:48:57;5.05;;;1.95;;
13220;SDS011;6675;48.128;11.478;2024-03-25T05:51:25;4.35;;;1.65;;
13220;SDS011;6675;48.128;11.478;2024-03-25T05:53:51;2.55;;;1.42;;
13220;SDS011;6675;48.128;11.478;2024-03-25T05:56:16;3.55;;;1.60;;
13220;SDS011;6675;48.128;11.478;2024-03-25T05:58:42;5.22;;;1.90;;
13220;SDS011;6675;48.128;11.478;2024-03-25T06:01:08;3.92;;;1.80;;
13220;SDS011;6675;48.128;11.478;2024-03-25T06:03:33;3.40;;;1.35;;
13220;SDS011;6675;48.128;11.478;2024-03-25T06:05:59;4.18;;;1.75;;
13220;SDS011;6675;48.128;11.478;2024-03-25T06:08:26;4.35;;;1.65;;
13220;SDS011;6675;48.128;11.478;2024-03-25T06:10:51;4.07;;;1.85;;
13220;SDS011;6675;48.128;11.478;2024-03-25T06:13:20;2.97;;;1.63;;
13220;SDS011;6675;48.128;11.478;2024-03-25T06:15:46;2.92;;;1.42;;
13220;SDS011;6675;48.128;11.478;2024-03-25T06:18:12;3.35;;;1.45;;
13220;SDS011;6675;48.128;11.478;2024-03-25T06:20:37;3.42;;;1.48;;
13220;SDS011;6675;48.128;11.478;2024-03-25T06:23:03;3.75;;;1.77;;
13220;SDS011;6675;48.128;11.478;2024-03-25T06:25:30;3.72;;;1.75;;
13220;SDS011;6675;48.128;11.478;2024-03-25T06:27:55;4.03;;;1.38;;
13220;SDS011;6675;48.128;11.478;2024-03-25T06:30:21;4.03;;;1.42;;
13220;SDS011;6675;48.128;11.478;2024-03-25T06:33:06;3.67;;;1.75;;
13220;SDS011;6675;48.128;11.478;2024-03-25T06:35:50;5.47;;;2.35;;
13220;SDS011;6675;48.128;11.478;2024-03-25T06:38:17;6.20;;;2.00;;
13220;SDS011;6675;48.128;11.478;2024-03-25T06:40:42;3.70;;;2.00;;
13220;SDS011;6675;48.128;11.478;2024-03-25T06:43:09;3.67;;;1.95;;
13220;SDS011;6675;48.128;11.478;2024-03-25T06:45:35;5.82;;;1.70;;
13220;SDS011;6675;48.128;11.478;2024-03-25T06:48:01;5.40;;;1.98;;
13220;SDS011;6675;48.128;11.478;2024-03-25T06:50:26;4.38;;;1.63;;
13220;SDS011;6675;48.128;11.478;2024-03-25T06:52:52;4.85;;;1.80;;
13220;SDS011;6675;48.128;11.478;2024-03-25T06:55:17;4.25;;;1.88;;
13220;SDS011;6675;48.128;11.478;2024-03-25T06:57:47;4.05;;;1.73;;
13220;SDS011;6675;48.128;11.478;2024-03-25T07:00:13;4.35;;;2.03;;
13220;SDS011;6675;48.128;11.478;2024-03-25T07:02:39;4.28;;;1.50;;
13220;SDS011;6675;48.128;11.478;2024-03-25T07:05:05;4.07;;;1.90;;
13220;SDS011;6675;48.128;11.478;2024-03-25T07:07:31;3.40;;;1.38;;
13220;SDS011;6675;48.128;11.478;2024-03-25T07:09:59;3.65;;;1.42;;
13220;SDS011;6675;48.128;11.478;2024-03-25T07:12:24;3.80;;;1.63;;
13220;SDS011;6675;48.128;11.478;2024-03-25T07:14:50;3.30;;;1.90;;
13220;SDS011;6675;48.128;11.478;2024-03-25T07:17:15;3.22;;;1.63;;
13220;SDS011;6675;48.128;11.478;2024-03-25T07:19:41;5.53;;;1.55;;
13220;SDS011;6675;48.128;11.478;2024-03-25T07:22:07;4.07;;;1.67;;
13220;SDS011;6675;48.128;11.478;2024-03-25T07:24:33;3.20;;;1.52;;
13220;SDS011;6675;48.128;11.478;2024-03-25T07:26:58;5.78;;;1.85;;
13220;SDS011;6675;48.128;11.478;2024-03-25T07:29:24;4.28;;;1.58;;
13220;SDS011;6675;48.128;11.478;2024-03-25T07:31:49;4.13;;;1.55;;
13220;SDS011;6675;48.128;11.478;2024-03-25T07:34:15;3.92;;;1.52;;
13220;SDS011;6675;48.128;11.478;2024-03-25T07:36:40;3.15;;;1.50;;
13220;SDS011;6675;48.128;11.478;2024-03-25T07:39:06;4.43;;;1.67;;
13220;SDS011;6675;48.128;11.478;2024-03-25T07:41:35;4.00;;;1.80;;
13220;SDS011;6675;48.128;11.478;2024-03-25T07:44:04;4.15;;;1.70;;
13220;SDS011;6675;48.128;11.478;2024-03-25T07:46:29;2.78;;;1.70;;
13220;SDS011;6675;48.128;11.478;2024-03-25T07:48:55;4.78;;;1.65;;
13220;SDS011;6675;48.128;11.478;2024-03-25T07:51:21;3.45;;;1.52;;
13220;SDS011;6675;48.128;11.478;2024-03-25T07:53:47;4.25;;;1.60;;
13220;SDS011;6675;48.128;11.478;2024-03-25T07:56:12;3.67;;;1.67;;
13220;SDS011;6675;48.128;11.478;2024-03-25T07:58:40;4.30;;;2.00;;
13220;SDS011;6675;48.128;11.478;2024-03-25T08:01:05;4.95;;;1.67;;
13220;SDS011;6675;48.128;11.478;2024-03-25T08:03:31;4.75;;;1.90;;
13220;SDS011;6675;48.128;11.478;2024-03-25T08:05:56;4.60;;;1.77;;
13220;SDS011;6675;48.128;11.478;2024-03-25T08:08:22;3.20;;;1.63;;
13220;SDS011;6675;48.128;11.478;2024-03-25T08:10:47;5.18;;;1.55;;
13220;SDS011;6675;48.128;11.478;2024-03-25T08:13:13;3.47;;;1.70;;
13220;SDS011;6675;48.128;11.478;2024-03-25T08:15:39;3.45;;;1.65;;
13220;SDS011;6675;48.128;11.478;2024-03-25T08:18:04;4.05;;;1.80;;
13220;SDS011;6675;48.128;11.478;2024-03-25T08:20:30;4.47;;;1.83;;
13220;SDS011;6675;48.128;11.478;2024-03-25T08:22:56;3.60;;;1.73;;
13220;SDS011;6675;48.128;11.478;2024-03-25T08:25:22;4.78;;;2.00;;
13220;SDS011;6675;48.128;11.478;2024-03-25T08:27:47;3.85;;;1.65;;
13220;SDS011;6675;48.128;11.478;2024-03-25T08:30:13;3.67;;;1.80;;
13220;SDS011;6675;48.128;11.478;2024-03-25T08:32:38;5.22;;;2.00;;
13220;SDS011;6675;48.128;11.478;2024-03-25T08:35:04;5.55;;;1.88;;
13220;SDS011;6675;48.128;11.478;2024-03-25T08:37:30;4.35;;;2.10;;
13220;SDS011;6675;48.128;11.478;2024-03-25T08:39:55;4.82;;;1.90;;
13220;SDS011;6675;48.128;11.478;2024-03-25T08:42:21;3.28;;;1.95;;
13220;SDS011;6675;48.128;11.478;2024-03-25T08:44:46;5.10;;;2.85;;
13220;SDS011;6675;48.128;11.478;2024-03-25T08:47:12;5.00;;;2.05;;
13220;SDS011;6675;48.128;11.478;2024-03-25T08:49:37;4.75;;;1.83;;
13220;SDS011;6675;48.128;11.478;2024-03-25T08:52:03;5.15;;;2.20;;
13220;SDS011;6675;48.128;11.478;2024-03-25T08:54:29;3.97;;;2.10;;
13220;SDS011;6675;48.128;11.478;2024-03-25T08:56:54;4.25;;;1.92;;
13220;SDS011;6675;48.128;11.478;2024-03-25T08:59:20;4.55;;;1.92;;
13220;SDS011;6675;48.128;11.478;2024-03-25T09:01:45;4.28;;;2.25;;
13220;SDS011;6675;48.128;11.478;2024-03-25T09:04:11;4.45;;;2.00;;
13220;SDS011;6675;48.128;11.478;2024-03-25T09:06:36;4.97;;;2.00;;
13220;SDS011;6675;48.128;11.478;2024-03-25T09:09:03;3.25;;;2.00;;
13220;SDS011;6675;48.128;11.478;2024-03-25T09:11:47;3.58;;;1.73;;
13220;SDS011;6675;48.128;11.478;2024-03-25T09:14:12;3.75;;;1.90;;
13220;SDS011;6675;48.128;11.478;2024-03-25T09:16:38;4.05;;;2.08;;
13220;SDS011;6675;48.128;11.478;2024-03-25T09:19:03;3.58;;;1.58;;
13220;SDS011;6675;48.128;11.478;2024-03-25T09:21:29;3.15;;;1.77;;
13220;SDS011;6675;48.128;11.478;2024-03-25T09:23:55;5.32;;;2.25;;
13220;SDS011;6675;48.128;11.478;2024-03-25T09:26:22;4.00;;;2.30;;
13220;SDS011;6675;48.128;11.478;2024-03-25T09:28:48;5.63;;;3.05;;
13220;SDS011;6675;48.128;11.478;2024-03-25T09:31:14;3.97;;;2.17;;
13220;SDS011;6675;48.128;11.478;2024-03-25T09:33:40;3.53;;;1.55;;
13220;SDS011;6675;48.128;11.478;2024-03-25T09:36:05;4.60;;;2.17;;
13220;SDS011;6675;48.128;11.478;2024-03-25T09:38:31;3.78;;;2.15;;
13220;SDS011;6675;48.128;11.478;2024-03-25T09:40:57;3.65;;;1.80;;
13220;SDS011;6675;48.128;11.478;2024-03-25T09:43:27;4.20;;;1.85;;
13220;SDS011;6675;48.128;11.478;2024-03-25T09:45:58;5.50;;;2.03;;
13220;SDS011;6675;48.128;11.478;2024-03-25T09:48:25;3.42;;;1.83;;
13220;SDS011;6675;48.128;11.478;2024-03-25T09:50:50;3.47;;;1.83;;
13220;SDS011;6675;48.128;11.478;2024-03-25T09:53:18;3.80;;;1.88;;
13220;SDS011;6675;48.128;11.478;2024-03-25T09:55:44;4.05;;;1.70;;
13220;SDS011;6675;48.128;11.478;2024-03-25T09:58:11;3.42;;;1.83;;
13220;SDS011;6675;48.128;11.478;2024-03-25T10:00:39;4.05;;;1.83;;
13220;SDS011;6675;48.128;11.478;2024-03-25T10:03:04;3.13;;;1.65;;
13220;SDS011;6675;48.128;11.478;2024-03-25T10:05:31;3.38;;;1.88;;
13220;SDS011;6675;48.128;11.478;2024-03-25T10:07:57;4.32;;;2.05;;
13220;SDS011;6675;48.128;11.478;2024-03-25T10:10:23;4.20;;;1.80;;
13220;SDS011;6675;48.128;11.478;2024-03-25T10:12:48;2.60;;;1.80;;
13220;SDS011;6675;48.128;11.478;2024-03-25T10:15:16;2.70;;;1.50;;
13220;SDS011;6675;48.128;11.478;2024-03-25T10:17:42;3.10;;;1.80;;
13220;SDS011;6675;48.128;11.478;2024-03-25T10:20:13;2.90;;;1.50;;
13220;SDS011;6675;48.128;11.478;2024-03-25T10:25:18;3.85;;;1.60;;
13220;SDS011;6675;48.128;11.478;2024-03-25T10:27:54;3.60;;;1.52;;
13220;SDS011;6675;48.128;11.478;2024-03-25T10:30:21;2.95;;;1.70;;
13220;SDS011;6675;48.128;11.478;2024-03-25T10:32:56;4.18;;;1.65;;
13220;SDS011;6675;48.128;11.478;2024-03-25T10:35:26;2.55;;;1.50;;
13220;SDS011;6675;48.128;11.478;2024-03-25T10:37:58;2.67;;;1.63;;
13220;SDS011;6675;48.128;11.478;2024-03-25T10:40:30;3.28;;;1.55;;
13220;SDS011;6675;48.128;11.478;2024-03-25T10:43:02;2.30;;;1.42;;
13220;SDS011;6675;48.128;11.478;2024-03-25T10:45:31;2.90;;;1.73;;
13220;SDS011;6675;48.128;11.478;2024-03-25T10:48:08;2.95;;;1.80;;
13220;SDS011;6675;48.128;11.478;2024-03-25T10:50:39;3.00;;;1.95;;
13220;SDS011;6675;48.128;11.478;2024-03-25T10:53:05;2.90;;;1.90;;
13220;SDS011;6675;48.128;11.478;2024-03-25T10:55:33;3.13;;;1.75;;
13220;SDS011;6675;48.128;11.478;2024-03-25T10:58:01;4.45;;;2.38;;
13220;SDS011;6675;48.128;11.478;2024-03-25T11:00:28;2.88;;;1.90;;
13220;SDS011;6675;48.128;11.478;2024-03-25T11:02:54;4.35;;;2.15;;
13220;SDS011;6675;48.128;11.478;2024-03-25T11:05:21;3.97;;;1.85;;
13220;SDS011;6675;48.128;11.478;2024-03-25T11:07:47;4.70;;;2.72;;
13220;SDS011;6675;48.128;11.478;2024-03-25T11:10:13;4.35;;;2.13;;
13220;SDS011;6675;48.128;11.478;2024-03-25T11:12:40;4.18;;;2.90;;
13220;SDS011;6675;48.128;11.478;2024-03-25T11:15:10;4.10;;;1.85;;
13220;SDS011;6675;48.128;11.478;2024-03-25T11:17:36;6.53;;;2.60;;
13220;SDS011;6675;48.128;11.478;2024-03-25T11:20:15;3.08;;;2.00;;
13220;SDS011;6675;48.128;11.478;2024-03-25T11:23:14;3.38;;;1.60;;
13220;SDS011;6675;48.128;11.478;2024-03-25T11:25:37;2.85;;;1.52;;
13220;SDS011;6675;48.128;11.478;2024-03-25T11:28:03;3.78;;;1.80;;
13220;SDS011;6675;48.128;11.478;2024-03-25T11:30:29;3.10;;;1.55;;
13220;SDS011;6675;48.128;11.478;2024-03-25T11:32:56;2.42;;;1.70;;
13220;SDS011;6675;48.128;11.478;2024-03-25T11:35:23;3.55;;;1.90;;
13220;SDS011;6675;48.128;11.478;2024-03-25T11:37:49;3.63;;;2.22;;
13220;SDS011;6675;48.128;11.478;2024-03-25T11:40:17;2.95;;;1.83;;
13220;SDS011;6675;48.128;11.478;2024-03-25T11:42:43;3.45;;;1.85;;
13220;SDS011;6675;48.128;11.478;2024-03-25T11:45:16;3.28;;;1.45;;
13220;SDS011;6675;48.128;11.478;2024-03-25T11:47:46;2.83;;;1.75;;
13220;SDS011;6675;48.128;11.478;2024-03-25T11:50:14;3.35;;;1.90;;
13220;SDS011;6675;48.128;11.478;2024-03-25T11:52:43;4.32;;;2.00;;
13220;SDS011;6675;48.128;11.478;2024-03-25T11:55:09;3.05;;;1.75;;
13220;SDS011;6675;48.128;11.478;2024-03-25T11:57:37;2.80;;;1.85;;
13220;SDS011;6675;48.128;11.478;2024-03-25T12:00:03;2.53;;;1.65;;
13220;SDS011;6675;48.128;11.478;2024-03-25T12:02:31;2.75;;;1.80;;
13220;SDS011;6675;48.128;11.478;2024-03-25T12:04:57;3.33;;;1.80;;
13220;SDS011;6675;48.128;11.478;2024-03-25T12:07:22;3.17;;;1.60;;
13220;SDS011;6675;48.128;11.478;2024-03-25T12:09:48;2.90;;;1.50;;
13220;SDS011;6675;48.128;11.478;2024-03-25T12:12:32;3.08;;;1.60;;
13220;SDS011;6675;48.128;11.478;2024-03-25T12:14:59;2.55;;;1.50;;
13220;SDS011;6675;48.128;11.478;2024-03-25T12:17:27;2.85;;;1.50;;
13220;SDS011;6675;48.128;11.478;2024-03-25T12:22:30;3.05;;;1.42;;
13220;SDS011;6675;48.128;11.478;2024-03-25T12:25:00;3.03;;;1.48;;
13220;SDS011;6675;48.128;11.478;2024-03-25T12:27:31;3.88;;;1.42;;
13220;SDS011;6675;48.128;11.478;2024-03-25T12:30:00;3.10;;;1.55;;
13220;SDS011;6675;48.128;11.478;2024-03-25T12:32:37;3.05;;;1.60;;
13220;SDS011;6675;48.128;11.478;2024-03-25T12:35:11;2.47;;;1.35;;
13220;SDS011;6675;48.128;11.478;2024-03-25T12:37:41;2.05;;;1.40;;
13220;SDS011;6675;48.128;11.478;2024-03-25T12:40:11;3.05;;;1.45;;
13220;SDS011;6675;48.128;11.478;2024-03-25T12:42:53;2.88;;;1.33;;
13220;SDS011;6675;48.128;11.478;2024-03-25T12:45:20;2.67;;;1.40;;
13220;SDS011;6675;48.128;11.478;2024-03-25T12:47:46;2.47;;;1.58;;
13220;SDS011;6675;48.128;11.478;2024-03-25T12:50:11;3.10;;;1.70;;
13220;SDS011;6675;48.128;11.478;2024-03-25T12:52:37;2.97;;;1.63;;
13220;SDS011;6675;48.128;11.478;2024-03-25T12:55:03;2.70;;;1.40;;
13220;SDS011;6675;48.128;11.478;2024-03-25T12:57:28;2.58;;;1.60;;
13220;SDS011;6675;48.128;11.478;2024-03-25T12:59:54;2.70;;;1.80;;
13220;SDS011;6675;48.128;11.478;2024-03-25T13:02:20;3.80;;;1.65;;
13220;SDS011;6675;48.128;11.478;2024-03-25T13:04:48;2.33;;;1.80;;
13220;SDS011;6675;48.128;11.478;2024-03-25T13:07:13;3.17;;;1.60;;
13220;SDS011;6675;48.128;11.478;2024-03-25T13:09:39;3.17;;;1.80;;
13220;SDS011;6675;48.128;11.478;2024-03-25T13:12:05;2.95;;;1.70;;
13220;SDS011;6675;48.128;11.478;2024-03-25T13:14:30;2.90;;;1.70;;
13220;SDS011;6675;48.128;11.478;2024-03-25T13:16:56;2.10;;;1.50;;
13220;SDS011;6675;48.128;11.478;2024-03-25T13:19:21;3.28;;;1.55;;
13220;SDS011;6675;48.128;11.478;2024-03-25T13:21:47;2.65;;;1.73;;
13220;SDS011;6675;48.128;11.478;2024-03-25T13:24:13;2.72;;;1.92;;
13220;SDS011;6675;48.128;11.478;2024-03-25T13:26:39;3.42;;;2.08;;
13220;SDS011;6675;48.128;11.478;2024-03-25T13:29:04;4.00;;;2.38;;
13220;SDS011;6675;48.128;11.478;2024-03-25T13:31:32;2.42;;;1.75;;
13220;SDS011;6675;48.128;11.478;2024-03-25T13:33:58;2.30;;;2.00;;
13220;SDS011;6675;48.128;11.478;2024-03-25T13:36:23;2.17;;;1.90;;
13220;SDS011;6675;48.128;11.478;2024-03-25T13:38:49;4.25;;;2.00;;
13220;SDS011;6675;48.128;11.478;2024-03-25T13:41:14;2.80;;;1.80;;
13220;SDS011;6675;48.128;11.478;2024-03-25T13:43:43;2.38;;;1.80;;
13220;SDS011;6675;48.128;11.478;2024-03-25T13:46:08;3.08;;;2.03;;
13220;SDS011;6675;48.128;11.478;2024-03-25T13:48:34;2.33;;;1.85;;
13220;SDS011;6675;48.128;11.478;2024-03-25T13:51:00;2.92;;;2.00;;
13220;SDS011;6675;48.128;11.478;2024-03-25T13:53:25;3.28;;;2.50;;
13220;SDS011;6675;48.128;11.478;2024-03-25T13:55:51;3.15;;;2.03;;
13220;SDS011;6675;48.128;11.478;2024-03-25T13:58:17;2.53;;;2.22;;
13220;SDS011;6675;48.128;11.478;2024-03-25T14:00:45;2.38;;;1.88;;
13220;SDS011;6675;48.128;11.478;2024-03-25T14:03:10;3.35;;;2.20;;
13220;SDS011;6675;48.128;11.478;2024-03-25T14:05:36;2.95;;;2.10;;
13220;SDS011;6675;48.128;11.478;2024-03-25T14:08:01;2.60;;;1.90;;
13220;SDS011;6675;48.128;11.478;2024-03-25T14:10:30;4.00;;;1.90;;
13220;SDS011;6675;48.128;11.478;2024-03-25T14:12:56;3.03;;;1.77;;
13220;SDS011;6675;48.128;11.478;2024-03-25T14:15:21;3.00;;;2.10;;
13220;SDS011;6675;48.128;11.478;2024-03-25T14:17:47;2.88;;;2.00;;
13220;SDS011;6675;48.128;11.478;2024-03-25T14:20:15;2.55;;;1.70;;
13220;SDS011;6675;48.128;11.478;2024-03-25T14:22:40;2.65;;;2.00;;
13220;SDS011;6675;48.128;11.478;2024-03-25T14:25:07;3.35;;;2.05;;
13220;SDS011;6675;48.128;11.478;2024-03-25T14:27:33;2.70;;;2.00;;
13220;SDS011;6675;48.128;11.478;2024-03-25T14:29:59;3.20;;;2.00;;
13220;SDS011;6675;48.128;11.478;2024-03-25T14:32:27;2.63;;;1.83;;
13220;SDS011;6675;48.128;11.478;2024-03-25T14:34:52;2.53;;;1.67;;
13220;SDS011;6675;48.128;11.478;2024-03-25T14:37:18;3.13;;;1.90;;
13220;SDS011;6675;48.128;11.478;2024-03-25T14:39:43;3.08;;;1.85;;
13220;SDS011;6675;48.128;11.478;2024-03-25T14:42:09;6.75;;;6.18;;
13220;SDS011;6675;48.128;11.478;2024-03-25T14:44:36;4.32;;;3.92;;
13220;SDS011;6675;48.128;11.478;2024-03-25T14:47:02;3.05;;;2.58;;
13220;SDS011;6675;48.128;11.478;2024-03-25T14:49:28;7.18;;;2.00;;
13220;SDS011;6675;48.128;11.478;2024-03-25T14:51:53;2.28;;;1.50;;